Time;durP1;ratioP1;P1;durP2;ratioP2;P2;SDS_P1;SDS_P2;PMS_P1;PMS_P2;Temp;Humidity;BMP_temperature;BMP_pressure;BME280_temperature;BME280_humidity;BME280_pressure;Samples;Min_cycle;Max_cycle;Signal;HPM_P1;HPM_P2
2022/08/24 00:00:14;;;;;;;44.38;37.53;;;19.40;99.90;;;;;;5086915;28;20134;-75
2022/08/24 00:02:40;;;;;;;46.85;38.92;;;19.40;99.90;;;;;;5089727;28;20538;-75
2022/08/24 00:05:07;;;;;;;49.20;39.58;;;19.30;99.90;;;;;;5091606;28;20115;-75
2022/08/24 00:07:33;;;;;;;54.67;40.08;;;19.30;99.90;;;;;;5074246;28;20040;-75
2022/08/24 00:10:00;;;;;;;59.33;41.33;;;19.20;99.90;;;;;;5089102;28;20039;-75
2022/08/24 00:12:26;;;;;;;60.30;44.38;;;19.20;99.90;;;;;;5087169;28;20515;-75
2022/08/24 00:14:52;;;;;;;57.40;42.92;;;19.20;99.90;;;;;;5071378;28;20123;-75
2022/08/24 00:17:19;;;;;;;55.40;43.67;;;19.20;99.90;;;;;;5081194;28;20086;-75
2022/08/24 00:19:45;;;;;;;52.65;42.08;;;19.20;99.90;;;;;;5069880;28;20063;-75
2022/08/24 00:22:12;;;;;;;60.05;43.00;;;19.10;99.90;;;;;;5085544;28;20175;-75
2022/08/24 00:24:37;;;;;;;58.15;42.88;;;19.10;99.90;;;;;;5092619;28;20071;-76
2022/08/24 00:27:05;;;;;;;56.30;42.42;;;19.10;99.90;;;;;;5074739;28;20494;-75
2022/08/24 00:29:31;;;;;;;50.53;40.92;;;19.10;99.90;;;;;;5091423;28;20505;-75
2022/08/24 00:31:57;;;;;;;57.40;40.13;;;19.10;99.90;;;;;;5083536;28;20569;-75
2022/08/24 00:34:24;;;;;;;46.38;36.95;;;19.00;99.90;;;;;;5080031;28;20126;-75
2022/08/24 00:36:50;;;;;;;50.63;40.42;;;19.00;99.90;;;;;;5089729;28;20039;-75
2022/08/24 00:39:15;;;;;;;52.47;39.95;;;19.00;99.90;;;;;;5091677;28;20440;-76
2022/08/24 00:41:43;;;;;;;48.63;38.45;;;18.90;99.90;;;;;;5087367;28;20048;-75
2022/08/24 00:44:10;;;;;;;48.50;37.13;;;18.90;99.90;;;;;;5074095;28;20133;-75
2022/08/24 00:46:45;;;;;;;46.95;36.08;;;18.90;99.90;;;;;;5089215;28;20420;-75
2022/08/24 00:49:23;;;;;;;45.30;35.17;;;18.80;99.90;;;;;;5070951;28;20364;-76
2022/08/24 00:52:15;;;;;;;46.38;36.53;;;18.80;99.90;;;;;;5075724;28;20044;-76
2022/08/24 00:54:44;;;;;;;41.35;34.15;;;18.70;99.90;;;;;;5081669;28;20094;-75
2022/08/24 00:57:12;;;;;;;43.47;34.92;;;18.80;99.90;;;;;;5076662;27;20145;-75
2022/08/24 00:59:55;;;;;;;42.97;34.83;;;18.70;99.90;;;;;;5089044;28;20052;-75
2022/08/24 01:02:24;;;;;;;41.03;33.95;;;18.60;99.90;;;;;;5087288;28;20047;-75
2022/08/24 01:04:58;;;;;;;41.75;34.22;;;18.60;99.90;;;;;;5095346;28;20047;-75
2022/08/24 01:07:27;;;;;;;42.40;33.78;;;18.60;99.90;;;;;;5078753;28;20039;-75
2022/08/24 01:09:55;;;;;;;42.22;34.85;;;18.50;99.90;;;;;;5094072;28;20147;-74
2022/08/24 01:12:23;;;;;;;44.60;35.90;;;18.50;99.90;;;;;;5076691;28;20060;-75
2022/08/24 01:14:49;;;;;;;46.25;38.20;;;18.40;99.90;;;;;;5077747;28;20514;-75
2022/08/24 01:20:03;;;;;;;;;;;18.60;99.90;;;;;;5095454;28;20042;-75
2022/08/24 01:22:40;;;;;;;44.08;36.50;;;18.50;99.90;;;;;;5094131;28;20405;-74
2022/08/24 01:25:07;;;;;;;44.38;36.58;;;18.50;99.90;;;;;;5091421;28;20100;-74
2022/08/24 01:27:35;;;;;;;45.40;34.67;;;18.50;99.90;;;;;;5076629;28;20058;-74
2022/08/24 01:30:04;;;;;;;41.60;34.42;;;18.60;99.90;;;;;;5094019;28;20505;-74
2022/08/24 01:32:29;;;;;;;43.67;34.05;;;18.50;99.90;;;;;;5075383;28;20096;-74
2022/08/24 01:34:56;;;;;;;43.08;34.28;;;18.60;99.90;;;;;;5081285;28;20040;-75
2022/08/24 01:37:22;;;;;;;33.35;29.88;;;18.50;99.90;;;;;;5094134;28;20036;-75
2022/08/24 01:39:54;;;;;;;36.65;30.25;;;18.50;99.90;;;;;;5109362;28;20035;-75
2022/08/24 01:42:19;;;;;;;31.23;26.45;;;18.50;99.90;;;;;;5074583;28;20043;-75
2022/08/24 01:44:45;;;;;;;26.38;23.17;;;18.40;99.90;;;;;;5071105;28;20162;-75
2022/08/24 01:47:13;;;;;;;23.38;20.98;;;18.40;99.90;;;;;;5073589;28;20082;-75
2022/08/24 01:49:43;;;;;;;24.38;20.23;;;18.40;99.90;;;;;;5086787;28;20423;-75
2022/08/24 01:52:12;;;;;;;23.33;20.92;;;18.40;99.90;;;;;;5089904;28;20062;-75
2022/08/24 01:54:39;;;;;;;22.92;19.98;;;18.30;99.90;;;;;;5073962;28;20040;-75
2022/08/24 01:57:05;;;;;;;20.67;18.58;;;18.30;99.90;;;;;;5082407;28;20040;-75
2022/08/24 01:59:30;;;;;;;21.55;19.35;;;18.30;99.90;;;;;;5093228;28;20177;-75
2022/08/24 02:02:11;;;;;;;18.73;16.83;;;18.20;99.90;;;;;;5090808;28;20127;-75
2022/08/24 02:04:37;;;;;;;19.50;17.60;;;18.20;99.90;;;;;;5079777;28;20055;-75
2022/08/24 02:07:04;;;;;;;20.73;18.65;;;18.20;99.90;;;;;;5075596;28;20051;-76
2022/08/24 02:09:30;;;;;;;19.58;17.58;;;18.10;99.90;;;;;;5094134;28;20066;-75
2022/08/24 02:11:55;;;;;;;20.88;18.17;;;18.10;99.90;;;;;;5091457;28;20054;-75
2022/08/24 02:14:22;;;;;;;20.70;17.98;;;18.10;99.90;;;;;;5092630;28;20122;-75
2022/08/24 02:16:48;;;;;;;19.63;17.17;;;18.10;99.90;;;;;;5084804;28;20046;-75
2022/08/24 02:19:14;;;;;;;18.23;16.02;;;18.00;99.90;;;;;;5084357;28;20040;-74
2022/08/24 02:21:40;;;;;;;19.13;17.05;;;18.00;99.90;;;;;;5083867;28;20118;-74
2022/08/24 02:24:06;;;;;;;21.10;17.67;;;18.10;99.90;;;;;;5080017;28;20089;-74
2022/08/24 02:26:34;;;;;;;22.30;16.73;;;18.00;99.90;;;;;;5077749;28;20447;-75
2022/08/24 02:29:00;;;;;;;18.45;16.17;;;18.00;99.90;;;;;;5076094;28;20044;-75
2022/08/24 02:31:26;;;;;;;20.83;17.88;;;17.90;99.90;;;;;;5071977;28;20164;-75
2022/08/24 02:33:51;;;;;;;17.58;15.57;;;17.90;99.90;;;;;;5074919;28;20514;-74
2022/08/24 02:36:17;;;;;;;21.42;17.02;;;17.90;99.90;;;;;;5067742;28;20059;-76
2022/08/24 02:38:45;;;;;;;18.08;16.27;;;17.90;99.90;;;;;;5072131;28;20115;-75
2022/08/24 02:41:11;;;;;;;17.60;15.80;;;17.90;99.90;;;;;;5088834;28;20027;-75
2022/08/24 02:43:37;;;;;;;20.23;18.10;;;17.80;99.90;;;;;;5091642;28;20123;-75
2022/08/24 02:46:02;;;;;;;19.52;17.42;;;17.80;99.90;;;;;;5090631;28;20459;-74
2022/08/24 02:48:28;;;;;;;22.35;18.27;;;17.80;99.90;;;;;;5090486;28;20043;-75
2022/08/24 02:50:54;;;;;;;19.70;17.15;;;17.70;99.90;;;;;;5076238;28;20118;-75
2022/08/24 02:53:21;;;;;;;21.05;18.80;;;17.80;99.90;;;;;;5075376;28;20036;-75
2022/08/24 02:55:50;;;;;;;23.70;19.52;;;17.70;99.90;;;;;;5077566;28;20066;-75
2022/08/24 02:58:16;;;;;;;22.20;19.80;;;17.60;99.90;;;;;;5072417;28;20051;-74
2022/08/24 03:00:45;;;;;;;21.65;19.13;;;17.70;99.90;;;;;;5071109;28;20040;-74
2022/08/24 03:03:11;;;;;;;22.33;19.42;;;17.70;99.90;;;;;;5088538;28;20386;-75
2022/08/24 03:05:38;;;;;;;20.38;18.30;;;17.60;99.90;;;;;;5086689;28;20034;-75
2022/08/24 03:08:04;;;;;;;20.33;18.15;;;17.70;99.90;;;;;;5082039;28;20046;-75
2022/08/24 03:10:30;;;;;;;20.63;17.95;;;17.60;99.90;;;;;;5090325;28;20044;-75
2022/08/24 03:13:06;;;;;;;18.85;17.02;;;17.60;99.90;;;;;;5087749;28;20387;-75
2022/08/24 03:15:35;;;;;;;20.30;17.45;;;17.60;99.90;;;;;;5071547;28;20040;-75
2022/08/24 03:18:00;;;;;;;18.20;16.30;;;17.60;99.90;;;;;;5085204;28;20130;-75
2022/08/24 03:20:26;;;;;;;19.42;16.70;;;17.50;99.90;;;;;;5093506;28;20486;-75
2022/08/24 03:22:52;;;;;;;21.25;17.30;;;17.50;99.90;;;;;;5091636;28;20055;-75
2022/08/24 03:25:20;;;;;;;19.25;17.38;;;17.50;99.90;;;;;;5074620;28;20032;-75
2022/08/24 03:27:45;;;;;;;19.30;17.30;;;17.50;99.90;;;;;;5092701;28;20063;-75
2022/08/24 03:30:13;;;;;;;22.33;18.25;;;17.50;99.90;;;;;;5089101;28;20522;-75
2022/08/24 03:32:40;;;;;;;23.27;17.83;;;17.50;99.90;;;;;;5081919;28;20055;-76
2022/08/24 03:35:07;;;;;;;22.25;17.67;;;17.50;99.90;;;;;;5093389;28;20039;-76
2022/08/24 03:37:33;;;;;;;20.20;17.83;;;17.40;99.90;;;;;;5073465;28;20031;-76
2022/08/24 03:39:59;;;;;;;20.60;18.08;;;17.50;99.90;;;;;;5076119;28;20535;-75
2022/08/24 03:42:24;;;;;;;23.35;20.02;;;17.50;99.90;;;;;;5089128;28;20080;-75
2022/08/24 03:44:50;;;;;;;21.15;18.02;;;17.50;99.90;;;;;;5090949;28;20166;-75
2022/08/24 03:47:16;;;;;;;22.77;18.70;;;17.50;99.90;;;;;;5089584;28;20055;-76
2022/08/24 03:49:41;;;;;;;21.92;19.25;;;17.50;99.90;;;;;;5093352;28;20196;-75
2022/08/24 03:52:07;;;;;;;23.90;19.02;;;17.40;99.90;;;;;;5091574;28;20418;-75
2022/08/24 03:54:33;;;;;;;22.42;19.63;;;17.40;99.90;;;;;;5072212;28;20075;-76
2022/08/24 03:56:59;;;;;;;22.20;20.00;;;17.40;99.90;;;;;;5097762;28;20044;-74
2022/08/24 03:59:24;;;;;;;22.77;20.30;;;17.40;99.90;;;;;;5089938;28;20132;-75
2022/08/24 04:01:51;;;;;;;21.85;19.33;;;17.40;99.90;;;;;;5072553;28;20039;-75
2022/08/24 04:04:17;;;;;;;24.48;19.90;;;17.40;99.90;;;;;;5073121;28;20047;-75
2022/08/24 04:06:45;;;;;;;26.48;21.42;;;17.30;99.90;;;;;;5091811;28;20062;-75
2022/08/24 04:09:11;;;;;;;24.02;21.45;;;17.30;99.90;;;;;;5073282;28;20036;-75
2022/08/24 04:11:37;;;;;;;28.63;24.70;;;17.40;99.90;;;;;;5090835;28;20535;-75
2022/08/24 04:14:03;;;;;;;31.77;27.88;;;17.50;99.90;;;;;;5070755;28;20032;-75
2022/08/24 04:16:29;;;;;;;29.00;25.52;;;17.40;99.90;;;;;;5066642;28;20112;-75
2022/08/24 04:18:58;;;;;;;31.73;26.52;;;17.50;99.90;;;;;;5074674;28;20468;-75
2022/08/24 04:21:27;;;;;;;34.42;25.08;;;17.50;99.90;;;;;;5073332;28;20146;-75
2022/08/24 04:23:53;;;;;;;29.20;23.88;;;17.50;99.90;;;;;;5092449;28;20055;-75
2022/08/24 04:26:23;;;;;;;26.23;23.40;;;17.50;99.90;;;;;;5093704;28;20052;-75
2022/08/24 04:28:49;;;;;;;26.92;22.98;;;17.50;99.90;;;;;;5091037;28;20043;-75
2022/08/24 04:31:16;;;;;;;27.92;24.60;;;17.50;99.90;;;;;;5092379;28;20088;-75
2022/08/24 04:33:41;;;;;;;27.70;24.42;;;17.50;99.90;;;;;;5076930;28;20039;-76
2022/08/24 04:36:08;;;;;;;30.08;26.98;;;17.50;99.90;;;;;;5078068;28;20393;-75
2022/08/24 04:38:34;;;;;;;30.75;27.50;;;17.50;99.90;;;;;;5093240;28;20058;-75
2022/08/24 04:41:06;;;;;;;29.88;25.67;;;17.60;99.90;;;;;;5100213;28;20483;-74
2022/08/24 04:43:33;;;;;;;30.15;25.60;;;17.60;99.90;;;;;;5090187;28;20035;-75
2022/08/24 04:45:59;;;;;;;28.52;25.48;;;17.60;99.90;;;;;;5087241;28;20055;-75
2022/08/24 04:48:25;;;;;;;28.73;25.35;;;17.60;99.90;;;;;;5089968;28;20360;-75
2022/08/24 04:50:52;;;;;;;28.98;25.88;;;17.60;99.90;;;;;;5092358;28;20802;-75
2022/08/24 04:53:18;;;;;;;29.13;24.38;;;17.60;99.90;;;;;;5077962;28;20051;-74
2022/08/24 04:55:47;;;;;;;28.33;25.35;;;17.60;99.90;;;;;;5079140;28;20040;-75
2022/08/24 04:58:15;;;;;;;28.83;25.73;;;17.60;99.90;;;;;;5077954;28;20039;-75
2022/08/24 05:00:41;;;;;;;29.77;26.58;;;17.60;99.90;;;;;;5098658;28;20054;-76
2022/08/24 05:03:10;;;;;;;30.70;26.15;;;17.60;99.90;;;;;;5084423;28;20048;-75
2022/08/24 05:05:40;;;;;;;33.63;28.02;;;17.70;99.90;;;;;;5100048;28;20093;-75
2022/08/24 05:08:06;;;;;;;31.25;27.88;;;17.70;99.90;;;;;;5078056;28;20513;-75
2022/08/24 05:10:41;;;;;;;32.25;28.77;;;17.70;99.90;;;;;;5092345;28;20074;-75
2022/08/24 05:13:07;;;;;;;;;;;17.70;99.90;;;;;;5076451;28;20039;-75
2022/08/24 05:15:34;;;;;;;43.28;32.95;;;17.80;99.90;;;;;;5093232;28;19915;-76
2022/08/24 05:18:00;;;;;;;42.53;33.60;;;17.80;99.90;;;;;;5071607;28;20130;-75
2022/08/24 05:20:26;;;;;;;45.53;36.33;;;17.90;99.90;;;;;;5085242;28;20128;-75
2022/08/24 05:22:53;;;;;;;48.13;36.75;;;17.90;99.90;;;;;;5087436;28;20119;-75
2022/08/24 05:25:19;;;;;;;51.08;40.13;;;18.00;99.90;;;;;;5093896;28;20132;-75
2022/08/24 05:27:45;;;;;;;53.92;40.78;;;18.00;99.90;;;;;;5094736;27;20053;-75
2022/08/24 05:30:11;;;;;;;61.38;41.42;;;18.10;99.90;;;;;;5088486;28;20533;-75
2022/08/24 05:32:37;;;;;;;55.97;40.03;;;18.10;99.90;;;;;;5070784;28;22199;-76
2022/08/24 05:35:05;;;;;;;54.78;41.15;;;18.10;99.90;;;;;;5093486;28;20123;-75
2022/08/24 05:37:34;;;;;;;57.08;41.33;;;18.20;99.90;;;;;;5094106;28;20040;-76
2022/08/24 05:40:04;;;;;;;49.78;38.83;;;18.20;99.90;;;;;;5072897;28;20545;-75
2022/08/24 05:42:30;;;;;;;55.30;40.67;;;18.30;99.90;;;;;;5094390;28;20040;-75
2022/08/24 05:44:56;;;;;;;49.78;36.92;;;18.30;99.90;;;;;;5075718;28;20403;-73
2022/08/24 05:47:21;;;;;;;52.70;38.83;;;18.30;99.90;;;;;;5074526;28;20055;-73
2022/08/24 05:49:51;;;;;;;48.58;38.70;;;18.40;99.90;;;;;;5093884;28;20502;-73
2022/08/24 05:52:18;;;;;;;54.88;38.60;;;18.50;99.90;;;;;;5104765;28;20039;-73
2022/08/24 05:54:44;;;;;;;51.15;38.92;;;18.50;99.90;;;;;;5078091;28;20062;-74
2022/08/24 05:57:10;;;;;;;49.60;39.00;;;18.50;99.90;;;;;;5072192;28;20594;-74
2022/08/24 05:59:37;;;;;;;48.20;36.25;;;18.60;99.90;;;;;;5077043;28;20044;-74
2022/08/24 06:02:03;;;;;;;47.50;36.40;;;18.60;99.90;;;;;;5074828;28;20137;-74
2022/08/24 06:04:29;;;;;;;38.83;32.78;;;18.70;99.90;;;;;;5090156;28;20074;-75
2022/08/24 06:06:55;;;;;;;43.17;34.30;;;18.80;99.90;;;;;;5091965;28;20032;-75
2022/08/24 06:09:21;;;;;;;39.17;31.48;;;18.80;99.90;;;;;;5093319;28;20054;-75
2022/08/24 06:11:51;;;;;;;51.85;37.60;;;19.00;99.90;;;;;;5092259;28;20074;-75
2022/08/24 06:14:17;;;;;;;37.75;29.98;;;19.00;99.90;;;;;;5093058;28;20048;-74
2022/08/24 06:16:45;;;;;;;38.95;30.00;;;19.00;99.90;;;;;;5092855;28;20092;-75
2022/08/24 06:19:13;;;;;;;48.15;33.50;;;19.10;99.90;;;;;;5075203;28;20048;-74
2022/08/24 06:21:39;;;;;;;47.58;35.40;;;19.20;99.90;;;;;;5074781;28;20495;-75
2022/08/24 06:24:06;;;;;;;36.70;29.60;;;19.30;99.90;;;;;;5093153;28;20052;-75
2022/08/24 06:29:18;;;;;;;36.47;29.60;;;19.50;99.90;;;;;;5090217;28;20046;-74
2022/08/24 06:31:45;;;;;;;31.17;27.25;;;19.50;99.90;;;;;;5090179;28;20042;-74
2022/08/24 06:34:13;;;;;;;44.63;29.70;;;19.60;99.90;;;;;;5077411;28;20043;-74
2022/08/24 06:36:39;;;;;;;43.97;30.38;;;19.70;99.90;;;;;;5080593;28;20043;-74
2022/08/24 06:39:06;;;;;;;41.78;30.15;;;19.80;99.90;;;;;;5083487;28;20044;-73
2022/08/24 06:41:32;;;;;;;72.70;33.40;;;19.80;99.90;;;;;;5069003;28;20075;-74
2022/08/24 06:43:58;;;;;;;65.90;28.88;;;19.80;99.90;;;;;;5091939;28;20497;-74
2022/08/24 06:46:23;;;;;;;92.82;30.85;;;19.90;99.90;;;;;;5085383;28;20040;-74
2022/08/24 06:48:52;;;;;;;103.82;29.65;;;20.00;99.90;;;;;;5088870;28;20051;-75
2022/08/24 06:51:19;;;;;;;120.85;27.98;;;20.10;99.90;;;;;;5084585;28;20168;-74
2022/08/24 06:53:45;;;;;;;233.20;33.13;;;20.10;99.90;;;;;;5071087;28;20047;-74
2022/08/24 06:56:11;;;;;;;160.27;29.15;;;20.20;99.90;;;;;;5086772;28;20043;-74
2022/08/24 06:58:38;;;;;;;90.07;30.65;;;20.20;99.90;;;;;;5067334;28;21280;-75
2022/08/24 07:01:16;;;;;;;55.13;27.65;;;20.30;99.90;;;;;;5084954;28;20048;-74
2022/08/24 07:03:43;;;;;;;55.58;28.42;;;20.40;99.90;;;;;;5087104;28;20413;-75
2022/08/24 07:06:09;;;;;;;72.18;25.92;;;20.40;99.90;;;;;;5088955;28;20051;-75
2022/08/24 07:08:35;;;;;;;63.40;23.95;;;20.50;99.90;;;;;;5075867;28;20148;-74
2022/08/24 07:11:04;;;;;;;61.45;21.83;;;20.50;99.90;;;;;;5090472;28;20122;-74
2022/08/24 07:13:30;;;;;;;68.68;21.45;;;20.50;99.90;;;;;;5071626;28;20170;-74
2022/08/24 07:15:56;;;;;;;60.20;20.20;;;20.70;99.90;;;;;;5080726;28;20056;-74
2022/08/24 07:18:22;;;;;;;57.15;19.05;;;20.70;99.90;;;;;;5091930;28;20109;-75
2022/08/24 07:20:49;;;;;;;49.78;18.80;;;20.80;99.90;;;;;;5073011;28;20044;-74
2022/08/24 07:23:16;;;;;;;36.95;17.00;;;20.90;99.90;;;;;;5073530;28;20080;-75
2022/08/24 07:25:45;;;;;;;31.52;14.73;;;20.90;99.90;;;;;;5093539;28;20044;-74
2022/08/24 07:28:12;;;;;;;36.63;14.98;;;21.00;99.90;;;;;;5073007;28;20082;-74
2022/08/24 07:30:39;;;;;;;18.52;13.02;;;21.10;99.90;;;;;;5074596;28;20134;-75
2022/08/24 07:33:05;;;;;;;14.18;10.70;;;21.10;99.90;;;;;;5072122;28;20465;-74
2022/08/24 07:35:32;;;;;;;19.35;12.15;;;21.20;99.90;;;;;;5073300;28;20055;-74
2022/08/24 07:37:58;;;;;;;19.92;11.52;;;21.30;99.90;;;;;;5093027;28;20129;-73
2022/08/24 07:40:26;;;;;;;21.60;12.20;;;21.40;99.90;;;;;;5079411;28;20040;-74
2022/08/24 07:42:53;;;;;;;15.88;10.27;;;21.50;99.90;;;;;;5093131;28;20039;-73
2022/08/24 07:45:21;;;;;;;27.20;8.32;;;21.50;99.90;;;;;;5073866;28;20044;-76
2022/08/24 07:47:48;;;;;;;17.83;10.73;;;21.60;99.90;;;;;;5080904;28;20052;-76
2022/08/24 07:50:15;;;;;;;16.13;10.65;;;21.60;99.90;;;;;;5069809;28;20058;-75
2022/08/24 07:52:41;;;;;;;17.63;11.88;;;21.70;99.90;;;;;;5087316;28;20085;-75
2022/08/24 07:55:08;;;;;;;17.27;12.23;;;21.70;99.90;;;;;;5088446;28;20059;-77
2022/08/24 07:57:38;;;;;;;17.00;11.45;;;21.90;99.90;;;;;;5062940;28;20437;-75
2022/08/24 08:00:06;;;;;;;21.10;11.98;;;21.90;99.90;;;;;;5082716;28;20048;-76
2022/08/24 08:02:36;;;;;;;13.43;9.68;;;22.00;99.90;;;;;;5074625;28;20039;-77
2022/08/24 08:05:03;;;;;;;12.80;9.02;;;22.00;99.90;;;;;;5090907;27;20059;-74
2022/08/24 08:07:29;;;;;;;12.05;9.25;;;22.10;99.90;;;;;;5079919;28;20048;-75
2022/08/24 08:09:55;;;;;;;18.17;8.95;;;22.20;99.90;;;;;;5067929;28;20051;-74
2022/08/24 08:12:21;;;;;;;15.00;8.52;;;22.30;99.90;;;;;;5085377;28;20109;-75
2022/08/24 08:14:47;;;;;;;15.73;9.48;;;22.40;99.90;;;;;;5084686;28;20416;-75
2022/08/24 08:17:13;;;;;;;15.65;8.75;;;22.40;99.90;;;;;;5088785;28;20448;-75
2022/08/24 08:19:41;;;;;;;11.73;9.00;;;22.40;99.90;;;;;;5090669;28;20039;-76
2022/08/24 08:24:51;;;;;;;14.60;8.80;;;22.70;99.90;;;;;;5083700;28;20483;-76
2022/08/24 08:27:18;;;;;;;14.48;7.85;;;22.80;99.90;;;;;;5080630;28;20312;-75
2022/08/24 08:29:43;;;;;;;14.23;8.70;;;22.80;99.90;;;;;;5067471;28;20075;-75
2022/08/24 08:32:15;;;;;;;15.65;8.27;;;22.90;99.90;;;;;;5068159;28;20448;-75
2022/08/24 08:34:42;;;;;;;11.85;7.35;;;22.90;99.90;;;;;;5078614;28;20055;-75
2022/08/24 08:37:09;;;;;;;14.40;7.20;;;23.00;99.90;;;;;;5083505;28;20347;-75
2022/08/24 08:39:35;;;;;;;13.88;7.10;;;23.10;99.90;;;;;;5084921;28;20860;-75
2022/08/24 08:42:13;;;;;;;12.77;8.30;;;23.10;99.90;;;;;;5072559;28;20121;-76
2022/08/24 08:45:17;;;;;;;16.25;8.48;;;23.20;99.90;;;;;;5084952;28;20447;-76
2022/08/24 08:48:27;;;;;;;20.20;8.40;;;23.30;99.90;;;;;;5067342;28;20100;-75
2022/08/24 08:51:20;;;;;;;12.30;7.50;;;23.40;99.90;;;;;;5067572;28;20196;-77
2022/08/24 08:54:14;;;;;;;11.15;7.03;;;23.60;99.90;;;;;;5095382;28;20047;-77
2022/08/24 08:56:48;;;;;;;14.45;7.50;;;23.80;99.90;;;;;;5084698;28;20529;-76
2022/08/24 08:59:13;;;;;;;12.80;7.85;;;24.10;99.90;;;;;;5065623;28;20047;-76
2022/08/24 09:05:32;;;;;;;8.75;7.10;;;24.30;99.90;;;;;;5102850;28;20047;-76
2022/08/24 09:08:19;;;;;;;17.92;7.65;;;24.50;99.90;;;;;;5081941;28;20093;-75
2022/08/24 09:11:04;;;;;;;9.63;6.60;;;24.60;99.90;;;;;;5082001;28;20441;-75
2022/08/24 09:13:42;;;;;;;15.73;5.88;;;24.60;99.90;;;;;;5075448;28;20067;-74
2022/08/24 09:16:16;;;;;;;11.35;6.03;;;24.70;99.90;;;;;;5079332;28;20056;-76
2022/08/24 09:19:03;;;;;;;12.30;6.05;;;24.90;99.90;;;;;;5063015;28;20063;-76
2022/08/24 09:21:48;;;;;;;18.02;6.25;;;25.00;99.90;;;;;;5089173;28;20555;-75
2022/08/24 09:24:20;;;;;;;13.27;5.70;;;25.00;99.90;;;;;;5081209;28;20135;-75
2022/08/24 09:27:17;;;;;;;14.27;5.10;;;25.10;99.90;;;;;;5078811;28;20040;-76
2022/08/24 09:31:30;;;;;;;10.55;6.82;;;25.20;99.90;;;;;;5103739;27;20408;-76
2022/08/24 09:34:08;;;;;;;15.88;7.07;;;25.30;99.90;;;;;;5060245;28;20051;-76
2022/08/24 09:36:58;;;;;;;12.90;6.50;;;25.30;99.90;;;;;;5061704;28;20052;-76
2022/08/24 09:39:52;;;;;;;9.55;7.13;;;25.40;99.90;;;;;;5058846;28;20048;-74
2022/08/24 09:42:52;;;;;;;13.00;7.65;;;25.50;99.90;;;;;;5075132;28;20089;-75
2022/08/24 09:45:51;;;;;;;10.05;6.68;;;25.60;99.90;;;;;;5075277;28;20048;-75
2022/08/24 09:48:44;;;;;;;13.95;6.70;;;25.70;99.90;;;;;;5069075;28;20048;-75
2022/08/24 09:51:26;;;;;;;10.00;6.13;;;25.90;99.90;;;;;;5071435;28;20052;-75
2022/08/24 09:54:03;;;;;;;8.25;6.20;;;26.10;99.90;;;;;;5077066;28;20095;-74
2022/08/24 09:57:17;;;;;;;10.45;5.35;;;26.20;99.90;;;;;;5072869;28;20378;-74
2022/08/24 09:59:54;;;;;;;13.55;6.00;;;26.40;99.90;;;;;;5017850;28;20053;-75
2022/08/24 10:02:41;;;;;;;11.43;5.53;;;26.60;99.90;;;;;;5009484;28;20050;-75
2022/08/24 10:05:21;;;;;;;8.32;5.20;;;26.60;99.90;;;;;;5023287;28;20054;-72
2022/08/24 10:08:14;;;;;;;7.88;5.35;;;26.90;99.90;;;;;;5002947;28;20142;-74
2022/08/24 10:10:53;;;;;;;9.05;4.80;;;26.90;99.90;;;;;;4992133;28;20137;-74
2022/08/24 10:13:30;;;;;;;10.68;4.57;;;27.30;99.90;;;;;;5021183;28;20034;-76
2022/08/24 10:16:19;;;;;;;9.00;4.70;;;27.50;99.90;;;;;;5022410;28;20072;-75
2022/08/24 10:19:06;;;;;;;8.07;4.00;;;27.60;99.90;;;;;;5003885;28;20045;-76
2022/08/24 10:22:14;;;;;;;12.38;4.28;;;27.70;99.90;;;;;;4994970;28;20096;-76
2022/08/24 10:25:03;;;;;;;10.63;3.67;;;27.90;99.90;;;;;;4957348;28;20319;-76
2022/08/24 10:27:37;;;;;;;6.10;1.95;;;28.20;99.90;;;;;;4962094;28;20126;-75
2022/08/24 10:30:32;;;;;;;5.88;2.33;;;28.30;99.90;;;;;;4983193;28;20084;-76
2022/08/24 10:33:08;;;;;;;5.47;2.90;;;28.50;99.90;;;;;;4994984;28;20056;-75
2022/08/24 10:35:36;;;;;;;3.95;2.00;;;28.70;99.90;;;;;;4988528;28;20076;-76
2022/08/24 10:41:26;;;;;;;5.13;2.72;;;29.30;99.90;;;;;;4983018;28;20096;-77
2022/08/24 10:44:13;;;;;;;7.68;2.50;;;29.70;99.90;;;;;;4987333;28;20050;-75
2022/08/24 10:46:50;;;;;;;8.02;2.65;;;29.70;99.90;;;;;;4967739;28;20085;-75
2022/08/24 10:49:34;;;;;;;7.18;2.35;;;29.70;99.90;;;;;;4975329;28;20157;-75
2022/08/24 10:52:12;;;;;;;12.07;2.23;;;29.40;99.90;;;;;;4987880;28;20500;-75
2022/08/24 10:54:37;;;;;;;4.90;2.10;;;29.50;99.90;;;;;;4967757;28;20404;-75
2022/08/24 10:57:14;;;;;;;6.13;2.05;;;29.90;99.90;;;;;;4979998;28;20117;-75
2022/08/24 10:59:57;;;;;;;4.13;1.75;;;30.20;99.90;;;;;;5046600;28;20130;-74
2022/08/24 11:02:32;;;;;;;5.35;1.50;;;30.50;99.90;;;;;;5050229;28;20122;-75
2022/08/24 11:05:07;;;;;;;6.18;1.70;;;30.70;99.90;;;;;;5032303;28;20052;-75
2022/08/24 11:07:34;;;;;;;3.72;1.52;;;30.80;99.90;;;;;;5053887;28;21954;-75
2022/08/24 11:10:05;;;;;;;6.38;1.60;;;30.70;99.90;;;;;;5049074;28;20064;-74
2022/08/24 11:12:43;;;;;;;3.35;1.40;;;30.80;99.90;;;;;;5054321;28;20140;-74
2022/08/24 11:15:26;;;;;;;3.30;1.55;;;30.90;99.90;;;;;;5053552;28;20041;-75
2022/08/24 11:17:59;;;;;;;4.07;1.10;;;30.60;99.90;;;;;;5071053;28;20051;-75
2022/08/24 11:20:40;;;;;;;3.03;1.40;;;30.90;99.90;;;;;;5051602;28;20052;-74
2022/08/24 11:23:13;;;;;;;4.63;1.40;;;30.50;99.90;;;;;;5051910;28;20047;-74
2022/08/24 11:26:04;;;;;;;4.18;1.40;;;30.40;99.90;;;;;;5058731;28;20056;-73
2022/08/24 11:28:45;;;;;;;6.50;1.67;;;30.60;99.90;;;;;;5049727;28;20706;-76
2022/08/24 11:31:21;;;;;;;4.20;1.90;;;31.10;99.90;;;;;;5038739;28;20067;-75
2022/08/24 11:33:48;;;;;;;4.35;1.60;;;31.60;99.90;;;;;;5049522;28;20036;-74
2022/08/24 11:36:24;;;;;;;5.72;1.58;;;31.80;99.90;;;;;;5056029;28;20127;-74
2022/08/24 11:39:11;;;;;;;3.83;1.40;;;32.40;99.90;;;;;;5045346;28;20060;-75
2022/08/24 11:42:15;;;;;;;3.38;1.42;;;32.80;98.90;;;;;;5061763;28;20033;-76
2022/08/24 11:44:44;;;;;;;4.18;1.40;;;33.10;98.90;;;;;;5044206;28;20344;-74
2022/08/24 11:47:35;;;;;;;2.35;1.50;;;33.00;98.00;;;;;;5054961;28;20098;-75
2022/08/24 11:50:25;;;;;;;5.05;1.40;;;33.00;98.00;;;;;;5056211;28;20064;-75
2022/08/24 11:53:03;;;;;;;4.78;1.20;;;33.10;98.30;;;;;;5041091;28;20090;-76
2022/08/24 11:55:46;;;;;;;3.20;1.40;;;33.70;98.50;;;;;;5057108;28;20163;-75
2022/08/24 11:58:15;;;;;;;2.75;1.20;;;33.40;96.90;;;;;;5058728;28;20049;-76
2022/08/24 12:00:56;;;;;;;2.63;1.27;;;32.70;97.00;;;;;;5051299;28;20052;-74
2022/08/24 12:04:01;;;;;;;3.25;1.48;;;32.30;97.10;;;;;;5058450;28;20131;-75
2022/08/24 12:06:34;;;;;;;1.75;1.40;;;32.20;96.90;;;;;;5056766;28;20059;-75
2022/08/24 12:09:26;;;;;;;3.50;1.40;;;32.20;96.90;;;;;;5043373;28;20048;-75
2022/08/24 12:12:13;;;;;;;5.50;1.38;;;32.00;96.80;;;;;;4986928;28;20054;-75
2022/08/24 12:14:50;;;;;;;2.67;1.40;;;32.20;96.90;;;;;;4985028;28;20156;-74
2022/08/24 12:17:37;;;;;;;3.90;1.30;;;32.70;97.70;;;;;;4987084;28;20061;-74
2022/08/24 12:20:40;;;;;;;3.10;1.20;;;32.50;97.50;;;;;;4987855;28;20132;-75
2022/08/24 12:23:42;;;;;;;6.68;1.48;;;32.10;96.60;;;;;;4985295;28;20580;-75
2022/08/24 12:26:30;;;;;;;5.25;1.52;;;32.00;97.70;;;;;;4989405;28;20057;-75
2022/08/24 12:29:03;;;;;;;5.43;1.52;;;31.90;97.30;;;;;;4973104;28;20050;-78
2022/08/24 12:31:47;;;;;;;1.75;1.40;;;32.00;97.20;;;;;;4968523;28;20061;-78
2022/08/24 12:34:25;;;;;;;5.05;1.40;;;31.80;96.90;;;;;;4987970;28;20046;-77
2022/08/24 12:37:04;;;;;;;5.78;1.40;;;31.90;96.90;;;;;;4969889;28;20141;-78
2022/08/24 12:39:45;;;;;;;2.65;1.30;;;31.70;96.60;;;;;;4977274;28;20143;-77
2022/08/24 12:42:24;;;;;;;4.22;1.33;;;31.60;97.20;;;;;;4969201;28;20085;-77
2022/08/24 12:44:58;;;;;;;3.42;1.50;;;31.70;97.40;;;;;;4988655;28;20378;-78
2022/08/24 12:47:35;;;;;;;3.83;1.25;;;31.70;97.00;;;;;;5004607;28;20042;-78
2022/08/24 12:50:28;;;;;;;3.42;1.40;;;31.90;97.00;;;;;;5051813;28;20235;-79
2022/08/24 12:53:11;;;;;;;3.67;1.30;;;32.20;96.60;;;;;;5041499;28;20052;-77
2022/08/24 12:56:05;;;;;;;3.75;1.20;;;32.50;96.50;;;;;;5036678;28;20348;-77
2022/08/24 12:59:05;;;;;;;1.33;1.20;;;32.70;96.60;;;;;;5040178;28;20135;-77
2022/08/24 13:01:36;;;;;;;2.40;1.27;;;32.60;96.30;;;;;;5049541;28;20106;-78
2022/08/24 13:04:14;;;;;;;3.25;1.23;;;32.30;96.30;;;;;;5037059;28;20350;-78
2022/08/24 13:06:50;;;;;;;3.17;1.40;;;31.70;96.00;;;;;;5039295;28;20631;-79
2022/08/24 13:09:33;;;;;;;2.30;1.33;;;31.60;96.30;;;;;;5061308;28;20384;-77
2022/08/24 13:12:36;;;;;;;2.10;1.45;;;31.20;96.40;;;;;;5035686;28;20054;-78
2022/08/24 13:15:21;;;;;;;4.07;1.25;;;31.30;96.80;;;;;;5050859;28;20037;-77